Time,TemperatureF,DewpointF,PressureIn,WindDirection,WindDirectionDegrees,WindSpeedMPH,WindSpeedGustMPH,Humidity,HourlyPrecipIn,Conditions,Clouds,dailyrainin,SoftwareType,DateUTC
2013-08-21 00:10:00,62.6,62.3,30.16,SE,135,0.0,-999.0,99,-99.99,,,0.00,Acu-Link.com,2013-08-21 04:10:00,
2013-08-21 00:25:00,62.6,62.3,30.16,NNE,22,0.0,-999.0,99,-99.99,,,0.00,Acu-Link.com,2013-08-21 04:25:00,
2013-08-21 00:40:00,62.6,62.3,30.16,NNE,22,0.0,-999.0,99,-99.99,,,0.00,Acu-Link.com,2013-08-21 04:40:00,
2013-08-21 00:55:00,60.8,60.5,30.16,NNE,22,0.0,-999.0,99,-99.99,,,0.00,Acu-Link.com,2013-08-21 04:55:00,
2013-08-21 01:10:00,60.8,60.5,30.17,ENE,67,0.0,-999.0,99,-99.99,,,0.00,Acu-Link.com,2013-08-21 05:10:00,
2013-08-21 01:25:00,60.8,60.5,30.16,ENE,67,0.0,-999.0,99,-99.99,,,0.00,Acu-Link.com,2013-08-21 05:25:00,
2013-08-21 01:40:00,60.8,60.5,30.16,SSE,157,0.0,-999.0,99,-99.99,,,0.00,Acu-Link.com,2013-08-21 05:40:00,
2013-08-21 01:55:00,60.8,60.5,30.16,ENE,67,0.0,-999.0,99,-99.99,,,0.00,Acu-Link.com,2013-08-21 05:55:00,
2013-08-21 02:10:00,60.8,60.5,30.16,SSE,157,0.0,-999.0,99,-99.99,,,0.00,Acu-Link.com,2013-08-21 06:10:00,
2013-08-21 02:25:00,60.8,60.5,30.16,NNW,337,0.0,-999.0,99,-99.99,,,0.00,Acu-Link.com,2013-08-21 06:25:00,
2013-08-21 02:40:00,60.8,60.5,30.16,NNW,337,0.0,-999.0,99,-99.99,,,0.00,Acu-Link.com,2013-08-21 06:40:00,
2013-08-21 02:55:00,60.8,60.5,30.16,NNW,337,0.0,-999.0,99,-99.99,,,0.00,Acu-Link.com,2013-08-21 06:55:00,
2013-08-21 03:11:00,60.8,60.5,30.16,South,180,0.0,-999.0,99,-99.99,,,0.00,Acu-Link.com,2013-08-21 07:11:00,
2013-08-21 03:26:00,60.8,60.5,30.15,SSW,202,0.0,-999.0,99,-99.99,,,0.00,Acu-Link.com,2013-08-21 07:26:00,
2013-08-21 03:41:00,59.0,58.7,30.16,WNW,292,0.0,-999.0,99,-99.99,,,0.00,Acu-Link.com,2013-08-21 07:41:00,
2013-08-21 03:56:00,59.0,58.7,30.16,North,0,0.0,-999.0,99,-99.99,,,0.00,Acu-Link.com,2013-08-21 07:56:00,
2013-08-21 04:11:00,59.0,58.7,30.16,NNE,22,0.0,-999.0,99,-99.99,,,0.00,Acu-Link.com,2013-08-21 08:11:00,
2013-08-21 04:27:00,59.0,58.7,30.15,NNE,22,0.0,-999.0,99,-99.99,,,0.00,Acu-Link.com,2013-08-21 08:27:00,
2013-08-21 04:42:00,59.0,58.7,30.15,ENE,67,0.0,-999.0,99,-99.99,,,0.00,Acu-Link.com,2013-08-21 08:42:00,
2013-08-21 04:57:00,59.0,58.7,30.15,SSW,202,0.0,-999.0,99,-99.99,,,0.00,Acu-Link.com,2013-08-21 08:57:00,
2013-08-21 05:12:00,59.0,58.7,30.16,SSE,157,0.0,-999.0,99,-99.99,,,0.00,Acu-Link.com,2013-08-21 09:12:00,
2013-08-21 05:27:00,59.0,58.7,30.15,SE,135,0.0,-999.0,99,-99.99,,,0.00,Acu-Link.com,2013-08-21 09:27:00,
2013-08-21 05:42:00,59.0,58.7,30.16,SE,135,0.0,-999.0,99,-99.99,,,0.00,Acu-Link.com,2013-08-21 09:42:00,
2013-08-21 05:58:00,59.0,58.7,30.16,South,180,0.0,-999.0,99,-99.99,,,0.00,Acu-Link.com,2013-08-21 09:58:00,
2013-08-21 06:13:00,59.0,58.7,30.16,ESE,112,0.0,-999.0,99,-99.99,,,0.00,Acu-Link.com,2013-08-21 10:13:00,
2013-08-21 06:28:00,59.0,58.7,30.16,SE,135,0.0,-999.0,99,-99.99,,,0.00,Acu-Link.com,2013-08-21 10:28:00,
2013-08-21 06:43:00,59.0,58.7,30.17,South,180,0.0,-999.0,99,-99.99,,,0.00,Acu-Link.com,2013-08-21 10:43:00,
2013-08-21 06:58:00,59.0,58.7,30.17,ESE,112,0.0,-999.0,99,-99.99,,,0.00,Acu-Link.com,2013-08-21 10:58:00,
2013-08-21 07:13:00,59.0,58.7,30.17,SE,135,0.0,-999.0,99,-99.99,,,0.00,Acu-Link.com,2013-08-21 11:13:00,
2013-08-21 07:28:00,59.0,58.7,30.17,SW,225,0.0,-999.0,99,-99.99,,,0.00,Acu-Link.com,2013-08-21 11:28:00,
2013-08-21 07:43:00,59.0,58.7,30.17,ESE,112,0.0,-999.0,99,-99.99,,,0.00,Acu-Link.com,2013-08-21 11:43:00,
2013-08-21 07:58:00,59.0,58.7,30.18,East,90,0.0,-999.0,99,-99.99,,,0.00,Acu-Link.com,2013-08-21 11:58:00,
2013-08-21 08:13:00,60.8,60.5,30.18,SSE,157,0.0,-999.0,99,-99.99,,,0.00,Acu-Link.com,2013-08-21 12:13:00,
2013-08-21 08:28:00,60.8,60.5,30.19,SSE,157,0.0,-999.0,99,-99.99,,,0.00,Acu-Link.com,2013-08-21 12:28:00,
2013-08-21 08:43:00,62.6,62.3,30.19,ESE,112,0.0,-999.0,99,-99.99,,,0.00,Acu-Link.com,2013-08-21 12:43:00,
2013-08-21 08:58:00,64.4,64.1,30.19,ESE,112,0.0,-999.0,99,-99.99,,,0.00,Acu-Link.com,2013-08-21 12:58:00,
2013-08-21 09:13:00,64.4,64.1,30.19,East,90,0.0,-999.0,99,-99.99,,,0.00,Acu-Link.com,2013-08-21 13:13:00,
2013-08-21 09:28:00,69.8,69.5,30.19,ESE,112,0.0,-999.0,99,-99.99,,,0.00,Acu-Link.com,2013-08-21 13:28:00,
2013-08-21 09:43:00,75.2,68.2,30.19,SE,135,0.0,-999.0,79,-99.99,,,0.00,Acu-Link.com,2013-08-21 13:43:00,
2013-08-21 09:58:00,77.0,68.1,30.19,ESE,112,1.1,-999.0,74,-99.99,,,0.00,Acu-Link.com,2013-08-21 13:58:00,
2013-08-21 10:13:00,78.8,67.3,30.19,SSE,157,1.6,-999.0,68,-99.99,,,0.00,Acu-Link.com,2013-08-21 14:13:00,
2013-08-21 10:28:00,80.6,68.6,30.18,WSW,247,0.0,-999.0,67,-99.99,,,0.00,Acu-Link.com,2013-08-21 14:28:00,
2013-08-21 10:43:00,80.6,66.8,30.18,WNW,292,0.0,-999.0,63,-99.99,,,0.00,Acu-Link.com,2013-08-21 14:43:00,
2013-08-21 10:58:00,82.4,67.1,30.18,SSE,157,2.7,-999.0,60,-99.99,,,0.00,Acu-Link.com,2013-08-21 14:58:00,
2013-08-21 11:13:00,82.4,66.1,30.17,SE,135,0.0,-999.0,58,-99.99,,,0.00,Acu-Link.com,2013-08-21 15:13:00,
2013-08-21 11:28:00,84.2,68.3,30.17,SE,135,0.0,-999.0,59,-99.99,,,0.00,Acu-Link.com,2013-08-21 15:28:00,
2013-08-21 11:43:00,84.2,65.7,30.17,South,180,3.6,-999.0,54,-99.99,,,0.00,Acu-Link.com,2013-08-21 15:43:00,
2013-08-21 11:58:00,86.0,67.9,30.17,West,270,3.6,-999.0,55,-99.99,,,0.00,Acu-Link.com,2013-08-21 15:58:00,
2013-08-21 12:13:00,86.0,66.3,30.17,WNW,292,0.0,-999.0,52,-99.99,,,0.00,Acu-Link.com,2013-08-21 16:13:00,
2013-08-21 12:28:00,86.0,65.7,30.17,ESE,112,2.7,-999.0,51,-99.99,,,0.00,Acu-Link.com,2013-08-21 16:28:00,
2013-08-21 12:43:00,86.0,66.3,30.16,SSW,202,2.0,-999.0,52,-99.99,,,0.00,Acu-Link.com,2013-08-21 16:43:00,
2013-08-21 12:58:00,86.0,66.3,30.16,ENE,67,1.6,-999.0,52,-99.99,,,0.00,Acu-Link.com,2013-08-21 16:58:00,
2013-08-21 13:13:00,87.8,66.8,30.16,SSW,202,2.0,-999.0,50,-99.99,,,0.00,Acu-Link.com,2013-08-21 17:13:00,
2013-08-21 13:28:00,86.0,66.3,30.14,ESE,112,1.1,-999.0,52,-99.99,,,0.00,Acu-Link.com,2013-08-21 17:28:00,
2013-08-21 13:43:00,86.0,66.8,30.14,WNW,292,1.6,-999.0,53,-99.99,,,0.00,Acu-Link.com,2013-08-21 17:43:00,
2013-08-21 13:58:00,86.0,65.7,30.14,WNW,292,0.0,-999.0,51,-99.99,,,0.00,Acu-Link.com,2013-08-21 17:58:00,
2013-08-21 14:13:00,86.0,66.8,30.13,West,270,1.6,-999.0,53,-99.99,,,0.00,Acu-Link.com,2013-08-21 18:13:00,
2013-08-21 14:28:00,86.0,66.3,30.13,WNW,292,1.6,-999.0,52,-99.99,,,0.00,Acu-Link.com,2013-08-21 18:28:00,
2013-08-21 14:43:00,86.0,67.9,30.12,ESE,112,1.1,-999.0,55,-99.99,,,0.00,Acu-Link.com,2013-08-21 18:43:00,
2013-08-21 14:58:00,87.8,66.8,30.11,ENE,67,2.7,-999.0,50,-99.99,,,0.00,Acu-Link.com,2013-08-21 18:58:00,
2013-08-21 15:13:00,87.8,66.2,30.11,West,270,1.6,-999.0,49,-99.99,,,0.00,Acu-Link.com,2013-08-21 19:13:00,
2013-08-21 15:28:00,89.6,67.3,30.10,SW,225,2.0,-999.0,48,-99.99,,,0.00,Acu-Link.com,2013-08-21 19:28:00,
2013-08-21 15:43:00,87.8,63.8,30.10,SSW,202,2.0,-999.0,45,-99.99,,,0.00,Acu-Link.com,2013-08-21 19:43:00,
2013-08-21 15:58:00,87.8,66.2,30.09,SSE,157,0.0,-999.0,49,-99.99,,,0.00,Acu-Link.com,2013-08-21 19:58:00,
2013-08-21 16:13:00,87.8,68.5,30.09,East,90,1.6,-999.0,53,-99.99,,,0.00,Acu-Link.com,2013-08-21 20:13:00,
2013-08-21 16:28:00,87.8,68.5,30.09,West,270,0.0,-999.0,53,-99.99,,,0.00,Acu-Link.com,2013-08-21 20:28:00,
2013-08-21 16:43:00,87.8,66.2,30.09,SE,135,1.6,-999.0,49,-99.99,,,0.00,Acu-Link.com,2013-08-21 20:43:00,
2013-08-21 16:58:00,86.0,66.3,30.09,East,90,2.7,-999.0,52,-99.99,,,0.00,Acu-Link.com,2013-08-21 20:58:00,
2013-08-21 17:13:00,86.0,70.0,30.09,East,90,0.0,-999.0,59,-99.99,,,0.00,Acu-Link.com,2013-08-21 21:13:00,
2013-08-21 17:28:00,86.0,71.0,30.09,ENE,67,0.0,-999.0,61,-99.99,,,0.00,Acu-Link.com,2013-08-21 21:28:00,
2013-08-21 17:43:00,84.2,68.8,30.09,NE,45,0.0,-999.0,60,-99.99,,,0.00,Acu-Link.com,2013-08-21 21:43:00,
2013-08-21 17:58:00,82.4,68.0,30.08,ENE,67,0.0,-999.0,62,-99.99,,,0.00,Acu-Link.com,2013-08-21 21:58:00,
2013-08-21 18:13:00,82.4,69.4,30.07,ESE,112,1.6,-999.0,65,-99.99,,,0.00,Acu-Link.com,2013-08-21 22:13:00,
2013-08-21 18:28:00,80.6,68.2,30.07,ESE,112,0.0,-999.0,66,-99.99,,,0.00,Acu-Link.com,2013-08-21 22:28:00,
2013-08-21 18:43:00,80.6,68.6,30.07,ESE,112,0.0,-999.0,67,-99.99,,,0.00,Acu-Link.com,2013-08-21 22:43:00,
2013-08-21 18:58:00,80.6,69.0,30.06,ENE,67,0.0,-999.0,68,-99.99,,,0.00,Acu-Link.com,2013-08-21 22:58:00,
2013-08-21 19:13:00,78.8,68.2,30.06,NNE,22,0.0,-999.0,70,-99.99,,,0.00,Acu-Link.com,2013-08-21 23:13:00,
2013-08-21 19:29:00,78.8,68.6,30.06,NE,45,0.0,-999.0,71,-99.99,,,0.00,Acu-Link.com,2013-08-21 23:29:00,
2013-08-21 19:44:00,77.0,67.3,30.06,NW,315,0.0,-999.0,72,-99.99,,,0.00,Acu-Link.com,2013-08-21 23:44:00,
2013-08-21 19:59:00,77.0,68.1,30.06,ESE,112,0.0,-999.0,74,-99.99,,,0.00,Acu-Link.com,2013-08-21 23:59:00,
2013-08-21 20:14:00,73.4,65.7,30.05,North,0,0.0,-999.0,77,-99.99,,,0.00,Acu-Link.com,2013-08-22 00:14:00,
2013-08-21 20:29:00,73.4,66.1,30.05,ENE,67,0.0,-999.0,78,-99.99,,,0.00,Acu-Link.com,2013-08-22 00:29:00,
2013-08-21 20:44:00,71.6,65.1,30.06,ENE,67,0.0,-999.0,80,-99.99,,,0.00,Acu-Link.com,2013-08-22 00:44:00,
2013-08-21 20:59:00,71.6,66.5,30.06,NE,45,0.0,-999.0,84,-99.99,,,0.00,Acu-Link.com,2013-08-22 00:59:00,
2013-08-21 21:14:00,69.8,65.1,30.07,East,90,0.0,-999.0,85,-99.99,,,0.00,Acu-Link.com,2013-08-22 01:14:00,
2013-08-21 21:29:00,69.8,65.7,30.07,ESE,112,0.0,-999.0,87,-99.99,,,0.00,Acu-Link.com,2013-08-22 01:29:00,
2013-08-21 21:44:00,69.8,66.1,30.07,ESE,112,0.0,-999.0,88,-99.99,,,0.00,Acu-Link.com,2013-08-22 01:44:00,
2013-08-21 21:59:00,69.8,66.7,30.07,NW,315,0.0,-999.0,90,-99.99,,,0.00,Acu-Link.com,2013-08-22 01:59:00,
2013-08-21 22:14:00,68.0,65.9,30.06,ENE,67,0.0,-999.0,93,-99.99,,,0.00,Acu-Link.com,2013-08-22 02:14:00,
2013-08-21 22:29:00,68.0,65.9,30.06,NE,45,0.0,-999.0,93,-99.99,,,0.00,Acu-Link.com,2013-08-22 02:29:00,
2013-08-21 22:44:00,68.0,66.2,30.07,ENE,67,0.0,-999.0,94,-99.99,,,0.00,Acu-Link.com,2013-08-22 02:44:00,
2013-08-21 22:59:00,68.0,66.5,30.07,NNE,22,0.0,-999.0,95,-99.99,,,0.00,Acu-Link.com,2013-08-22 02:59:00,
2013-08-21 23:14:00,68.0,67.1,30.09,ESE,112,0.0,-999.0,97,-99.99,,,0.00,Acu-Link.com,2013-08-22 03:14:00,
2013-08-21 23:29:00,68.0,67.1,30.10,NW,315,0.0,-999.0,97,-99.99,,,0.00,Acu-Link.com,2013-08-22 03:29:00,
2013-08-21 23:44:00,66.2,65.3,30.09,NE,45,0.0,-999.0,97,-99.99,,,0.00,Acu-Link.com,2013-08-22 03:44:00,
2013-08-21 23:59:00,66.2,65.3,30.09,East,90,1.1,-999.0,97,-99.99,,,0.00,Acu-Link.com,2013-08-22 03:59:00,